Time;durP1;ratioP1;P1;durP2;ratioP2;P2;SDS_P1;SDS_P2;PMS_P1;PMS_P2;Temp;Humidity;BMP_temperature;BMP_pressure;BME280_temperature;BME280_humidity;BME280_pressure;Samples;Min_cycle;Max_cycle;Signal;HPM_P1;HPM_P2
2023/07/28 00:02:42;;;;;;;2.63;2.30;;;;;;;20.98;49.69;99000.97;10489104;28;20242;-67
2023/07/28 00:07:44;;;;;;;2.95;2.65;;;;;;;21.31;50.21;98936.97;10488449;28;20231;-68
2023/07/28 00:12:45;;;;;;;3.38;2.55;;;;;;;21.11;50.74;98923.44;10492991;28;20287;-67
2023/07/28 00:17:47;;;;;;;3.80;2.53;;;;;;;21.21;50.14;98943.25;10497805;28;20223;-68
2023/07/28 00:22:49;;;;;;;3.33;2.92;;;;;;;21.75;49.15;98949.91;10502111;28;20237;-68
2023/07/28 00:27:51;;;;;;;2.92;2.65;;;;;;;21.26;49.72;98977.00;10502808;28;20238;-67
2023/07/28 00:32:52;;;;;;;3.55;2.45;;;;;;;21.96;48.80;98967.00;10497622;28;20583;-68
2023/07/28 00:37:54;;;;;;;2.63;2.38;;;;;;;21.84;48.77;98961.00;10503727;28;20242;-67
2023/07/28 00:42:56;;;;;;;2.10;2.00;;;;;;;21.75;49.86;98921.88;10507676;28;20241;-67
2023/07/28 00:47:58;;;;;;;3.13;2.50;;;;;;;19.34;53.88;98964.06;10503372;28;20230;-67
2023/07/28 00:53:00;;;;;;;2.60;2.40;;;;;;;19.98;53.10;98923.38;10507216;28;20222;-68
2023/07/28 00:58:01;;;;;;;3.38;2.65;;;;;;;20.34;51.34;99005.75;10500884;28;20360;-67
2023/07/28 01:03:04;;;;;;;3.53;2.65;;;;;;;19.81;53.04;99000.44;10497445;28;20239;-69
2023/07/28 01:08:21;;;;;;;2.53;2.33;;;;;;;19.15;54.09;99000.84;10503143;28;20235;-69
2023/07/28 01:13:23;;;;;;;2.83;2.50;;;;;;;19.65;53.70;98958.81;10497915;28;20318;-69
2023/07/28 01:18:24;;;;;;;4.35;2.50;;;;;;;20.35;52.48;98935.97;10498386;28;20242;-69
2023/07/28 01:23:32;;;;;;;2.72;2.53;;;;;;;19.67;53.25;99010.13;10499327;28;20704;-69
2023/07/28 01:28:35;;;;;;;2.90;2.60;;;;;;;20.44;51.69;99002.25;10496071;28;20318;-69
2023/07/28 01:33:37;;;;;;;3.10;2.42;;;;;;;20.90;51.12;98975.13;10500997;28;20237;-69
2023/07/28 01:38:38;;;;;;;3.42;2.63;;;;;;;19.60;53.96;99021.22;10498987;28;20635;-69
2023/07/28 01:43:41;;;;;;;4.13;2.50;;;;;;;19.33;54.24;99024.00;10499600;28;20226;-69
2023/07/28 01:48:43;;;;;;;4.03;2.83;;;;;;;18.68;55.74;99021.31;10495099;28;20323;-68
2023/07/28 01:53:45;;;;;;;3.60;2.80;;;;;;;20.17;52.92;98989.69;10541861;27;20283;-68
2023/07/28 01:58:46;;;;;;;3.30;3.00;;;;;;;19.76;53.38;99020.22;10545155;28;20257;-69
2023/07/28 02:03:48;;;;;;;3.20;2.90;;;;;;;19.58;54.12;98996.25;10535240;28;20313;-69
2023/07/28 02:08:50;;;;;;;4.25;2.72;;;;;;;20.34;52.50;99007.69;10534379;28;20244;-68
2023/07/28 02:13:51;;;;;;;3.97;2.90;;;;;;;20.68;52.50;98954.47;10533669;28;20732;-68
2023/07/28 02:18:54;;;;;;;4.10;2.65;;;;;;;19.72;53.97;99023.72;10534597;28;20238;-69
2023/07/28 02:23:55;;;;;;;3.17;2.88;;;;;;;19.68;54.47;99003.63;10534377;28;20625;-69
2023/07/28 02:28:57;;;;;;;4.90;2.67;;;;;;;19.01;55.21;99051.97;10535614;28;20238;-68
2023/07/28 02:33:59;;;;;;;3.42;3.13;;;;;;;19.83;54.29;98992.03;10536998;28;20226;-69
2023/07/28 02:39:00;;;;;;;3.70;2.83;;;;;;;19.67;54.41;99026.41;10535276;28;20226;-68
2023/07/28 02:44:02;;;;;;;4.43;3.10;;;;;;;19.43;55.17;99028.69;10539749;28;20711;-68
2023/07/28 02:49:04;;;;;;;3.35;2.90;;;;;;;19.53;54.82;99012.47;10539478;28;20616;-69
2023/07/28 02:54:06;;;;;;;2.97;2.67;;;;;;;19.31;55.54;99024.25;10537135;28;20230;-66
2023/07/28 02:59:08;;;;;;;3.60;2.90;;;;;;;19.20;55.52;99057.84;10533174;28;20229;-68
2023/07/28 03:04:09;;;;;;;3.55;2.85;;;;;;;19.60;54.11;99074.66;10536609;28;20325;-68
2023/07/28 03:09:11;;;;;;;3.07;2.67;;;;;;;22.05;49.54;99051.66;10534320;28;20234;-69
2023/07/28 03:14:13;;;;;;;3.95;2.85;;;;;;;21.47;50.63;99070.31;10534446;28;20222;-69
2023/07/28 03:19:15;;;;;;;2.88;2.63;;;;;;;22.07;49.76;99060.38;10532870;28;20376;-69
2023/07/28 03:24:16;;;;;;;3.10;2.80;;;;;;;21.57;50.59;99111.13;10528962;28;20235;-67
2023/07/28 03:29:18;;;;;;;3.75;2.90;;;;;;;20.18;53.53;99113.56;10513454;28;20708;-69
2023/07/28 03:34:20;;;;;;;3.85;2.95;;;;;;;21.63;50.41;99087.41;10531977;28;20233;-69
2023/07/28 03:39:21;;;;;;;4.80;2.70;;;;;;;20.90;51.78;99123.84;10530046;28;20225;-67
2023/07/28 03:44:23;;;;;;;3.47;2.80;;;;;;;19.78;54.00;99136.66;10531430;28;21987;-69
2023/07/28 03:49:25;;;;;;;3.47;2.95;;;;;;;19.99;54.49;99094.19;10534718;28;20609;-69
2023/07/28 03:54:27;;;;;;;3.65;3.05;;;;;;;19.90;54.64;99106.59;10543083;28;20712;-67
2023/07/28 03:59:29;;;;;;;5.63;3.55;;;;;;;19.13;56.50;99106.84;10539806;28;20233;-69
2023/07/28 04:04:30;;;;;;;3.20;2.90;;;;;;;19.63;55.61;99106.72;10536820;28;20771;-69
2023/07/28 04:09:32;;;;;;;4.30;3.10;;;;;;;19.05;57.43;99099.19;10538142;28;20600;-70
2023/07/28 04:14:34;;;;;;;5.05;3.00;;;;;;;17.55;60.55;99091.09;10543735;28;20306;-69
2023/07/28 04:19:36;;;;;;;3.83;3.42;;;;;;;18.75;57.38;99086.94;10539211;28;20607;-69
2023/07/28 04:24:38;;;;;;;3.17;2.88;;;;;;;18.25;59.43;99061.75;10538704;28;20552;-69
2023/07/28 04:29:39;;;;;;;3.88;3.22;;;;;;;18.39;59.27;99056.78;10539018;28;20234;-69
2023/07/28 04:34:42;;;;;;;3.93;3.40;;;;;;;19.34;56.62;99091.56;10539521;28;20222;-69
2023/07/28 04:39:43;;;;;;;3.77;3.47;;;;;;;19.61;56.82;99070.88;10538557;28;20308;-69
2023/07/28 04:44:46;;;;;;;4.30;3.83;;;;;;;19.02;58.54;99081.53;10536930;28;20226;-69
2023/07/28 04:49:47;;;;;;;8.03;3.40;;;;;;;19.81;56.70;99067.47;10536808;28;20245;-68
2023/07/28 04:54:49;;;;;;;5.17;3.70;;;;;;;18.83;57.52;99183.25;10533326;28;20218;-69
2023/07/28 04:59:51;;;;;;;3.87;3.50;;;;;;;18.91;58.42;99149.44;10535366;28;20242;-69
2023/07/28 05:04:52;;;;;;;3.50;3.20;;;;;;;18.40;59.27;99155.91;10530432;28;20318;-69
2023/07/28 05:09:54;;;;;;;3.83;3.13;;;;;;;18.62;60.02;99117.16;10535127;28;20248;-69
2023/07/28 05:14:56;;;;;;;3.33;2.90;;;;;;;19.33;57.86;99136.06;10535016;28;20217;-69
2023/07/28 05:19:58;;;;;;;4.00;3.60;;;;;;;19.49;57.76;99115.28;10536584;28;20225;-69
2023/07/28 05:24:59;;;;;;;4.85;3.85;;;;;;;18.96;58.56;99182.03;10535513;28;20230;-69
2023/07/28 05:30:01;;;;;;;4.27;2.90;;;;;;;19.19;59.30;99130.22;10539856;28;20270;-69
2023/07/28 05:35:04;;;;;;;3.67;2.70;;;;;;;17.82;61.80;99185.13;10538971;28;20670;-69
2023/07/28 05:40:06;;;;;;;2.53;2.33;;;;;;;18.22;61.08;99148.06;10541348;28;20234;-69
2023/07/28 05:45:08;;;;;;;2.30;2.10;;;;;;;17.41;63.22;99189.88;10534678;28;20293;-67
2023/07/28 05:50:10;;;;;;;2.30;2.10;;;;;;;18.55;60.59;99168.00;10534927;28;20329;-67
2023/07/28 05:55:12;;;;;;;2.60;2.40;;;;;;;17.67;62.46;99226.28;10531946;28;20219;-67
2023/07/28 06:00:13;;;;;;;2.50;2.33;;;;;;;18.50;60.38;99176.88;10531920;28;20268;-68
2023/07/28 06:05:15;;;;;;;2.20;2.00;;;;;;;18.37;61.03;99207.06;10534440;28;20482;-67
2023/07/28 06:10:17;;;;;;;1.80;1.70;;;;;;;19.24;59.13;99182.88;10531223;28;20307;-68
2023/07/28 06:15:19;;;;;;;2.20;2.00;;;;;;;19.35;59.36;99160.19;10530463;28;20223;-68
2023/07/28 06:20:20;;;;;;;2.75;2.50;;;;;;;19.77;58.30;99192.03;10530337;28;20283;-69
2023/07/28 06:25:22;;;;;;;2.43;2.23;;;;;;;18.41;60.49;99273.22;10531914;28;20466;-68
2023/07/28 06:30:24;;;;;;;2.30;2.10;;;;;;;19.62;58.54;99232.59;10526738;28;20426;-68
2023/07/28 06:35:27;;;;;;;2.60;2.40;;;;;;;19.60;58.26;99272.75;10527935;28;20222;-68
2023/07/28 06:40:29;;;;;;;3.97;2.17;;;;;;;19.62;58.42;99247.03;10536424;28;20238;-67
2023/07/28 06:45:31;;;;;;;1.93;1.73;;;;;;;19.34;59.06;99248.88;10528762;28;20332;-68
2023/07/28 06:50:32;;;;;;;2.72;1.85;;;;;;;19.51;58.23;99277.81;10530206;28;20645;-68
2023/07/28 06:55:35;;;;;;;2.00;1.90;;;;;;;19.82;58.32;99240.91;10527064;28;20849;-67
2023/07/28 07:00:37;;;;;;;1.80;1.70;;;;;;;19.94;57.90;99271.44;10533438;28;20249;-67
2023/07/28 07:05:39;;;;;;;1.80;1.70;;;;;;;19.98;57.79;99271.75;10530274;28;20759;-68
2023/07/28 07:10:47;;;;;;;1.70;1.60;;;;;;;19.75;58.39;99262.03;10529939;28;20230;-68
2023/07/28 07:15:49;;;;;;;1.70;1.60;;;;;;;19.87;57.66;99291.72;10528912;28;20264;-70
2023/07/28 07:20:50;;;;;;;1.30;1.30;;;;;;;19.67;58.99;99263.34;10531112;28;20222;-67
2023/07/28 07:25:52;;;;;;;1.50;1.40;;;;;;;18.97;60.57;99300.28;10534419;28;20295;-67
2023/07/28 07:30:57;;;;;;;2.38;1.58;;;;;;;19.23;59.53;99276.97;10535399;28;20657;-70
2023/07/28 07:35:58;;;;;;;2.30;2.10;;;;;;;19.28;59.82;99274.34;10535654;28;20741;-70
2023/07/28 07:41:01;;;;;;;2.22;1.83;;;;;;;18.87;60.27;99311.75;10539441;28;20599;-67
2023/07/28 07:46:03;;;;;;;2.00;1.80;;;;;;;19.45;59.78;99263.38;10532582;28;20256;-67
2023/07/28 07:51:05;;;;;;;2.20;2.00;;;;;;;19.69;59.17;99314.66;10536143;28;20225;-70
2023/07/28 07:56:08;;;;;;;2.45;2.25;;;;;;;19.59;59.38;99307.22;10534540;28;20233;-70
2023/07/28 08:01:10;;;;;;;2.37;2.10;;;;;;;20.02;59.14;99258.47;10539746;28;20260;-67
2023/07/28 08:06:12;;;;;;;2.17;2.03;;;;;;;20.56;57.40;99298.22;10532847;28;20230;-67
2023/07/28 08:11:13;;;;;;;2.40;2.20;;;;;;;20.83;57.28;99281.81;10534967;28;20231;-68
2023/07/28 08:16:15;;;;;;;2.60;2.40;;;;;;;20.14;58.47;99305.25;10537477;28;20643;-69
2023/07/28 08:21:17;;;;;;;2.70;2.50;;;;;;;20.21;58.31;99300.47;10532079;28;20300;-69
2023/07/28 08:26:19;;;;;;;2.10;1.90;;;;;;;19.50;59.38;99357.56;10537123;28;20231;-67
2023/07/28 08:31:20;;;;;;;2.20;2.00;;;;;;;19.72;58.39;99354.84;10537901;28;20326;-69
2023/07/28 08:36:22;;;;;;;2.10;2.00;;;;;;;19.19;58.82;99384.31;10537854;28;20229;-69
2023/07/28 08:41:24;;;;;;;2.45;2.13;;;;;;;20.77;56.24;99310.88;10541020;28;20324;-69
2023/07/28 08:46:27;;;;;;;1.88;1.77;;;;;;;20.43;56.93;99322.06;10538859;28;20248;-69
2023/07/28 08:51:29;;;;;;;2.85;2.30;;;;;;;20.59;56.61;99303.94;10538194;28;20245;-66
2023/07/28 08:56:30;;;;;;;2.95;2.20;;;;;;;20.36;56.71;99332.34;10536477;28;20708;-69
2023/07/28 09:01:32;;;;;;;3.47;2.55;;;;;;;20.27;57.31;99342.06;10539946;28;20741;-69
2023/07/28 09:06:34;;;;;;;3.47;2.33;;;;;;;20.16;57.01;99351.16;10535653;28;20697;-69
2023/07/28 09:11:48;;;;;;;3.90;3.50;;;;;;;20.30;57.52;99327.97;10518226;28;20340;-67
2023/07/28 09:16:49;;;;;;;4.07;3.58;;;;;;;21.05;55.99;99306.09;10533122;28;20226;-67
2023/07/28 09:22:01;;;;;;;3.45;3.15;;;;;;;20.53;56.93;99340.34;10534017;28;20225;-68
2023/07/28 09:27:03;;;;;;;3.83;2.92;;;;;;;20.41;57.42;99326.13;10529833;28;20227;-68
2023/07/28 09:32:06;;;;;;;4.22;3.30;;;;;;;21.96;54.50;99326.53;10527764;28;20226;-68
2023/07/28 09:37:10;;;;;;;4.10;2.70;;;;;;;21.13;55.32;99353.75;10530208;28;20649;-68
2023/07/28 09:42:13;;;;;;;2.67;2.42;;;;;;;20.67;55.33;99365.97;10533853;28;20247;-67
2023/07/28 09:47:15;;;;;;;3.60;2.70;;;;;;;20.49;56.08;99367.22;10533102;28;20230;-68
2023/07/28 09:52:19;;;;;;;2.47;2.28;;;;;;;21.89;53.52;99293.25;10534540;28;20230;-68
2023/07/28 09:57:22;;;;;;;3.67;3.00;;;;;;;20.40;55.82;99384.28;10531534;28;20230;-67
2023/07/28 10:02:24;;;;;;;3.15;2.45;;;;;;;22.25;53.22;99295.16;10535943;28;20302;-68
2023/07/28 10:07:27;;;;;;;3.42;3.03;;;;;;;21.37;55.29;99322.31;10531170;28;20360;-68
2023/07/28 10:12:28;;;;;;;2.85;2.55;;;;;;;20.81;56.03;99347.31;10530084;28;20237;-67
2023/07/28 10:17:32;;;;;;;3.40;2.80;;;;;;;20.77;55.55;99342.72;10527768;28;20233;-68
2023/07/28 10:22:47;;;;;;;3.45;2.50;;;;;;;20.18;56.60;99374.31;10530410;28;20206;-67
2023/07/28 10:27:51;;;;;;;4.45;3.13;;;;;;;21.29;54.35;99341.84;10532073;28;20234;-67
2023/07/28 10:32:55;;;;;;;2.83;2.50;;;;;;;20.30;56.29;99374.16;10529667;28;20363;-67
2023/07/28 10:37:58;;;;;;;3.28;2.97;;;;;;;21.60;54.49;99292.97;10530008;28;20234;-67
2023/07/28 10:42:59;;;;;;;4.07;3.13;;;;;;;21.66;54.08;99316.38;10534053;28;20708;-68
2023/07/28 10:48:03;;;;;;;5.13;2.70;;;;;;;22.15;52.62;99334.97;10525215;28;20238;-67
2023/07/28 10:53:05;;;;;;;3.40;3.00;;;;;;;22.09;53.24;99341.50;10532320;28;20226;-67
2023/07/28 10:58:07;;;;;;;2.75;2.47;;;;;;;22.02;53.75;99315.63;10531524;28;20325;-67
2023/07/28 11:06:20;;;;;;;2.38;2.17;;;;;;;19.51;58.41;99311.19;10341000;28;20834;-69
2023/07/28 11:11:24;;;;;;;3.10;2.80;;;;;;;20.55;56.38;99286.56;10352957;28;20229;-69
2023/07/28 11:16:25;;;;;;;3.70;2.72;;;;;;;20.11;57.74;99313.94;10364166;28;20221;-69
2023/07/28 11:21:27;;;;;;;2.85;2.40;;;;;;;19.55;59.87;99316.91;10330352;28;20468;-67
2023/07/28 11:26:29;;;;;;;2.67;2.47;;;;;;;19.53;59.32;99357.06;10320900;28;20237;-70
2023/07/28 11:31:33;;;;;;;3.05;2.70;;;;;;;19.81;59.57;99333.50;10320375;28;20877;-69
2023/07/28 11:36:34;;;;;;;2.95;2.63;;;;;;;20.54;58.44;99295.78;10353184;28;20233;-70
2023/07/28 11:41:38;;;;;;;2.85;2.65;;;;;;;20.01;59.28;99303.81;10357996;28;20683;-69
2023/07/28 11:46:42;;;;;;;3.20;2.90;;;;;;;20.34;59.49;99273.91;10363503;28;20359;-69
2023/07/28 11:51:46;;;;;;;3.35;3.05;;;;;;;20.08;60.16;99325.31;10360343;28;20229;-70
2023/07/28 11:56:50;;;;;;;3.50;3.20;;;;;;;20.60;58.39;99292.00;10361638;28;20229;-69
2023/07/28 12:01:56;;;;;;;3.97;3.17;;;;;;;20.26;58.34;99341.25;10361628;28;20396;-69
2023/07/28 12:07:06;;;;;;;4.72;3.22;;;;;;;20.16;59.33;99352.00;10361614;28;20319;-70
2023/07/28 12:12:08;;;;;;;4.18;3.10;;;;;;;20.16;59.49;99329.44;10363743;28;20543;-70
2023/07/28 12:17:14;;;;;;;4.00;2.80;;;;;;;20.61;59.38;99298.25;10330710;28;20317;-68
2023/07/28 12:22:19;;;;;;;3.50;3.20;;;;;;;20.50;59.88;99300.91;10305443;28;20482;-70
2023/07/28 12:27:24;;;;;;;4.20;3.05;;;;;;;20.05;59.86;99334.78;10289622;28;20235;-70
2023/07/28 12:32:33;;;;;;;5.18;3.20;;;;;;;20.51;60.27;99307.16;10324683;28;20252;-70
2023/07/28 12:37:38;;;;;;;4.35;3.10;;;;;;;19.61;61.62;99329.50;10333232;28;20288;-70
2023/07/28 12:42:43;;;;;;;3.33;3.00;;;;;;;19.84;60.69;99373.69;10333837;28;20609;-70
2023/07/28 12:47:48;;;;;;;2.90;2.70;;;;;;;19.06;61.65;99403.69;10333469;28;20244;-70
2023/07/28 12:52:59;;;;;;;3.72;3.05;;;;;;;20.25;59.78;99363.25;10336561;28;20226;-70
2023/07/28 12:58:15;;;;;;;3.70;3.30;;;;;;;19.41;61.63;99372.66;10333499;28;20229;-70
2023/07/28 13:03:20;;;;;;;3.25;2.90;;;;;;;20.05;60.96;99307.63;10334785;28;20276;-68
2023/07/28 13:08:22;;;;;;;4.25;3.00;;;;;;;20.79;59.01;99308.72;10334059;28;20230;-68
2023/07/28 13:13:29;;;;;;;3.58;3.05;;;;;;;20.29;59.19;99373.34;10335859;28;20850;-68
2023/07/28 13:18:32;;;;;;;3.63;3.33;;;;;;;20.48;58.64;99402.78;10333158;28;20317;-70
2023/07/28 13:23:34;;;;;;;3.45;3.15;;;;;;;20.48;58.78;99376.47;10334473;28;20237;-70
2023/07/28 13:28:36;;;;;;;3.65;3.03;;;;;;;21.60;57.71;99301.94;10331274;28;20720;-69
2023/07/28 13:33:37;;;;;;;3.65;3.00;;;;;;;20.55;59.70;99359.94;10333448;28;20462;-69
2023/07/28 13:38:40;;;;;;;4.47;2.85;;;;;;;20.65;59.55;99335.53;10327896;28;20246;-69
2023/07/28 13:43:42;;;;;;;3.15;2.75;;;;;;;20.61;58.81;99360.78;10335050;28;20469;-70
2023/07/28 13:48:44;;;;;;;3.00;2.70;;;;;;;20.65;59.66;99319.22;10331315;28;20336;-69
2023/07/28 13:53:54;;;;;;;4.45;2.80;;;;;;;19.65;61.13;99387.59;10328265;28;20229;-67
2023/07/28 13:58:59;;;;;;;2.85;2.55;;;;;;;20.44;59.23;99371.81;10332737;28;20329;-67
2023/07/28 14:04:00;;;;;;;4.78;2.60;;;;;;;20.86;58.73;99341.09;10329753;28;20324;-70
2023/07/28 14:09:02;;;;;;;3.65;2.83;;;;;;;20.61;58.05;99379.81;10330079;28;20766;-70
2023/07/28 14:14:04;;;;;;;3.40;2.25;;;;;;;21.51;56.91;99362.59;10332571;28;20234;-67
2023/07/28 14:19:06;;;;;;;3.20;2.83;;;;;;;21.27;57.17;99357.59;10333529;28;20237;-70
2023/07/28 14:24:07;;;;;;;3.35;2.80;;;;;;;20.83;59.26;99357.94;10331015;28;20233;-70
2023/07/28 14:29:09;;;;;;;2.60;2.40;;;;;;;20.64;59.14;99382.00;10325262;28;20817;-68
2023/07/28 14:34:11;;;;;;;4.63;3.05;;;;;;;20.22;60.43;99388.19;10326740;28;20289;-70
2023/07/28 14:39:13;;;;;;;3.00;2.67;;;;;;;20.41;60.18;99366.88;10331471;28;20288;-70
2023/07/28 14:44:16;;;;;;;4.97;2.80;;;;;;;20.95;59.59;99342.25;10331861;28;20228;-70
2023/07/28 14:49:18;;;;;;;3.17;2.60;;;;;;;21.14;58.83;99334.44;10328631;28;20344;-69
2023/07/28 14:54:20;;;;;;;3.05;2.60;;;;;;;21.09;59.53;99342.59;10322112;28;20311;-68
2023/07/28 14:59:22;;;;;;;3.67;3.00;;;;;;;21.27;58.83;99324.13;10335111;28;20260;-70
2023/07/28 15:04:24;;;;;;;3.72;3.03;;;;;;;21.32;58.43;99327.69;10327227;28;20245;-70
2023/07/28 15:09:26;;;;;;;3.97;2.72;;;;;;;21.16;58.78;99369.53;10329109;28;20233;-67
2023/07/28 15:14:27;;;;;;;3.42;3.00;;;;;;;20.63;59.22;99407.53;10329668;28;20229;-67
2023/07/28 15:19:30;;;;;;;3.30;2.70;;;;;;;20.77;59.30;99380.75;10329369;28;20250;-70
2023/07/28 15:24:31;;;;;;;3.78;2.97;;;;;;;21.06;59.35;99354.00;10329779;28;20260;-70
2023/07/28 15:29:33;;;;;;;3.17;2.88;;;;;;;20.73;59.93;99350.50;10327869;28;20241;-69
2023/07/28 15:34:35;;;;;;;3.03;2.78;;;;;;;20.24;61.03;99375.16;10329466;28;20299;-70
2023/07/28 15:39:37;;;;;;;3.97;2.58;;;;;;;20.53;60.42;99353.94;10328534;28;20295;-67
2023/07/28 15:44:38;;;;;;;2.60;2.40;;;;;;;21.18;58.75;99323.84;10333343;28;20641;-68
2023/07/28 15:49:40;;;;;;;4.35;2.58;;;;;;;21.94;57.02;99336.03;10326924;28;20301;-70
2023/07/28 15:54:42;;;;;;;2.67;2.47;;;;;;;20.60;60.46;99370.03;10334882;28;20315;-70
2023/07/28 15:59:46;;;;;;;2.72;2.53;;;;;;;21.12;58.58;99339.34;10344153;28;20240;-70
2023/07/28 16:04:48;;;;;;;2.63;2.42;;;;;;;20.34;60.49;99369.00;10335040;28;20233;-70
2023/07/28 16:09:50;;;;;;;3.13;2.60;;;;;;;21.18;58.66;99354.56;10337674;28;20673;-70
2023/07/28 16:14:51;;;;;;;2.42;2.22;;;;;;;20.76;60.19;99350.00;10339075;28;20367;-70
2023/07/28 16:19:53;;;;;;;2.72;2.25;;;;;;;20.67;60.73;99357.81;10335641;28;20237;-69
2023/07/28 16:24:55;;;;;;;1.95;1.85;;;;;;;20.87;60.22;99345.47;10338059;28;20233;-69
2023/07/28 16:29:57;;;;;;;2.10;2.00;;;;;;;21.04;59.64;99339.84;10332654;28;20234;-69
2023/07/28 16:34:58;;;;;;;2.33;2.13;;;;;;;20.84;59.47;99349.53;10337628;28;20734;-70
2023/07/28 16:40:00;;;;;;;6.50;2.45;;;;;;;20.86;59.36;99354.69;10338573;28;20236;-69
2023/07/28 16:45:02;;;;;;;2.50;2.30;;;;;;;21.26;59.25;99341.56;10340101;28;20241;-69
2023/07/28 16:50:07;;;;;;;2.80;2.50;;;;;;;20.47;60.52;99372.09;10340405;28;20240;-69
2023/07/28 16:55:08;;;;;;;2.92;2.20;;;;;;;20.82;59.57;99364.47;10339018;28;20234;-69
2023/07/28 17:00:11;;;;;;;2.92;2.60;;;;;;;21.22;58.65;99350.25;10340468;28;20238;-69
2023/07/28 17:05:13;;;;;;;2.90;2.60;;;;;;;20.56;59.86;99393.34;10336450;28;20764;-69
2023/07/28 17:10:15;;;;;;;3.42;2.40;;;;;;;20.50;60.42;99371.56;10345173;28;20277;-71
2023/07/28 17:15:16;;;;;;;13.30;8.82;;;;;;;21.63;57.90;99337.88;10338678;28;20369;-70
2023/07/28 17:20:35;;;;;;;4.25;2.88;;;;;;;20.97;59.17;99355.56;10341743;28;20334;-72
2023/07/28 17:25:37;;;;;;;4.28;3.53;;;;;;;21.17;58.84;99376.59;10339168;28;21116;-72
2023/07/28 17:30:38;;;;;;;3.88;3.20;;;;;;;21.10;59.16;99378.75;10339642;28;20268;-72
2023/07/28 17:35:40;;;;;;;4.18;3.55;;;;;;;21.11;58.82;99374.97;10342308;28;20717;-72
2023/07/28 17:40:43;;;;;;;3.60;2.53;;;;;;;22.14;56.28;99355.09;10334751;28;20229;-71
2023/07/28 17:45:44;;;;;;;3.05;2.75;;;;;;;21.40;57.88;99368.03;10333855;28;20237;-72
2023/07/28 17:50:46;;;;;;;3.00;2.70;;;;;;;21.16;57.59;99396.75;10334772;28;20229;-71
2023/07/28 17:55:48;;;;;;;3.03;2.50;;;;;;;21.73;57.05;99373.31;10338956;28;20241;-72
2023/07/28 18:00:50;;;;;;;2.88;2.20;;;;;;;21.58;57.57;99372.16;10335468;28;20236;-72
2023/07/28 18:05:53;;;;;;;2.70;2.40;;;;;;;21.58;57.94;99339.50;10334418;28;20405;-72
2023/07/28 18:10:55;;;;;;;3.22;2.55;;;;;;;20.85;58.99;99363.94;10333221;28;20444;-71
2023/07/28 18:15:56;;;;;;;3.70;3.10;;;;;;;21.13;58.17;99361.91;10336031;28;20245;-72
2023/07/28 18:20:58;;;;;;;4.50;3.53;;;;;;;21.00;58.73;99358.59;10331100;28;20245;-72
2023/07/28 18:26:00;;;;;;;5.10;3.20;;;;;;;20.74;59.72;99359.50;10331408;28;20765;-72
2023/07/28 18:31:02;;;;;;;4.07;3.50;;;;;;;20.94;59.14;99364.28;10332695;28;20411;-71
2023/07/28 18:36:05;;;;;;;4.00;3.60;;;;;;;21.00;59.67;99342.28;10334265;28;20234;-71
2023/07/28 18:41:08;;;;;;;4.85;3.90;;;;;;;21.01;59.60;99349.34;10330794;28;20237;-72
2023/07/28 18:46:10;;;;;;;5.35;3.92;;;;;;;20.99;60.08;99343.34;10335146;28;20346;-71
2023/07/28 18:51:12;;;;;;;4.07;3.50;;;;;;;20.61;60.85;99372.44;10330850;28;20684;-72
2023/07/28 18:56:14;;;;;;;3.55;3.22;;;;;;;20.79;60.23;99370.44;10334754;28;20479;-72
2023/07/28 19:01:16;;;;;;;3.05;2.67;;;;;;;20.17;61.07;99404.44;10331963;28;20335;-71
2023/07/28 19:06:19;;;;;;;3.80;2.70;;;;;;;19.81;61.67;99401.38;10330079;28;20241;-72
2023/07/28 19:11:21;;;;;;;2.50;2.30;;;;;;;20.41;60.46;99366.88;10332552;28;20237;-71
2023/07/28 19:16:23;;;;;;;3.63;2.50;;;;;;;20.22;60.80;99377.34;10331277;28;20635;-72
2023/07/28 19:21:25;;;;;;;2.47;2.10;;;;;;;22.16;56.60;99341.22;10330164;28;20240;-72
2023/07/28 19:26:27;;;;;;;2.55;2.35;;;;;;;20.71;59.03;99408.97;10334948;28;20349;-71
2023/07/28 19:31:29;;;;;;;2.22;2.00;;;;;;;20.89;58.56;99405.03;10337851;28;20233;-72
2023/07/28 19:36:30;;;;;;;2.13;1.92;;;;;;;20.47;59.20;99406.63;10340399;28;20616;-72
2023/07/28 19:41:32;;;;;;;2.08;1.90;;;;;;;20.28;59.52;99415.16;10341888;28;20299;-72
2023/07/28 19:46:35;;;;;;;2.83;1.90;;;;;;;20.19;59.42;99408.53;10343192;28;20725;-72
2023/07/28 19:51:37;;;;;;;1.65;1.52;;;;;;;20.49;58.93;99404.44;10343648;28;20247;-72
2023/07/28 19:56:39;;;;;;;4.57;2.53;;;;;;;20.41;58.84;99391.34;10341801;28;20234;-72
2023/07/28 20:01:41;;;;;;;2.08;1.50;;;;;;;21.11;57.32;99369.53;10335194;28;20238;-72
2023/07/28 20:06:43;;;;;;;1.70;1.60;;;;;;;20.09;59.08;99420.13;10339075;28;22082;-72
2023/07/28 20:11:44;;;;;;;1.75;1.65;;;;;;;20.40;58.94;99367.97;10340215;28;20240;-72
2023/07/28 20:16:46;;;;;;;1.50;1.40;;;;;;;20.09;58.63;99417.41;10335911;28;20610;-72
2023/07/28 20:21:48;;;;;;;1.50;1.40;;;;;;;20.44;57.47;99401.69;10341341;28;20627;-71
2023/07/28 20:26:50;;;;;;;2.03;1.67;;;;;;;21.49;54.69;99378.41;10334724;28;20229;-72
2023/07/28 20:31:51;;;;;;;1.60;1.50;;;;;;;20.93;55.96;99404.22;10342023;28;20741;-72
2023/07/28 20:36:54;;;;;;;1.60;1.50;;;;;;;20.85;56.06;99412.88;10335569;28;20228;-71
2023/07/28 20:41:57;;;;;;;2.00;1.67;;;;;;;20.47;57.14;99409.34;10336394;28;20626;-72
2023/07/28 20:46:59;;;;;;;1.60;1.50;;;;;;;21.20;55.68;99368.72;10335153;28;20789;-72
2023/07/28 20:52:00;;;;;;;3.08;1.55;;;;;;;19.98;58.08;99423.81;10334798;28;20249;-71
2023/07/28 20:57:02;;;;;;;1.58;1.48;;;;;;;20.30;58.10;99383.09;10340895;28;20225;-71
2023/07/28 21:02:04;;;;;;;5.60;3.17;;;;;;;19.69;58.75;99387.94;10340080;28;20659;-71
2023/07/28 21:07:07;;;;;;;2.03;1.65;;;;;;;20.08;57.90;99376.91;10339724;28;20234;-71
2023/07/28 21:12:09;;;;;;;3.38;1.58;;;;;;;20.24;57.00;99388.75;10338552;28;20229;-71
2023/07/28 21:17:11;;;;;;;1.73;1.58;;;;;;;20.29;57.05;99376.06;10331941;28;20356;-71
2023/07/28 21:22:13;;;;;;;1.70;1.60;;;;;;;20.85;56.05;99336.75;10336942;28;20238;-71
2023/07/28 21:27:14;;;;;;;1.50;1.40;;;;;;;19.97;57.94;99381.41;10336375;28;20276;-71
2023/07/28 21:32:16;;;;;;;2.40;1.42;;;;;;;20.52;56.21;99352.28;10336831;28;20320;-72
2023/07/28 21:37:18;;;;;;;1.88;1.65;;;;;;;20.54;56.22;99362.91;10333796;28;20412;-72
2023/07/28 21:42:19;;;;;;;1.42;1.33;;;;;;;20.76;56.53;99338.31;10339368;28;20257;-70
2023/07/28 21:47:21;;;;;;;1.80;1.70;;;;;;;21.11;55.30;99353.19;10328784;28;20237;-72
2023/07/28 21:52:23;;;;;;;1.77;1.67;;;;;;;20.34;56.43;99423.34;10334092;28;20236;-72
2023/07/28 21:57:25;;;;;;;3.05;1.65;;;;;;;19.84;57.56;99407.09;10339350;28;20547;-71
2023/07/28 22:02:26;;;;;;;1.60;1.50;;;;;;;21.85;53.70;99332.19;10338233;28;20234;-70
2023/07/28 22:07:28;;;;;;;1.70;1.60;;;;;;;21.41;54.19;99358.78;10336223;28;20527;-69
2023/07/28 22:12:30;;;;;;;1.63;1.52;;;;;;;20.66;56.02;99353.47;10336548;28;20230;-70
2023/07/28 22:17:32;;;;;;;1.65;1.52;;;;;;;21.12;54.04;99362.97;10336535;28;20269;-72
2023/07/28 22:22:33;;;;;;;1.75;1.65;;;;;;;19.95;56.86;99383.56;10338110;28;20216;-71
2023/07/28 22:27:35;;;;;;;1.77;1.67;;;;;;;19.67;57.97;99368.34;10337926;28;20237;-71
2023/07/28 22:32:37;;;;;;;2.47;1.55;;;;;;;20.24;56.14;99354.25;10330393;28;20295;-72
2023/07/28 22:37:39;;;;;;;3.88;2.13;;;;;;;20.27;55.87;99358.34;10329184;28;20328;-72
2023/07/28 22:42:40;;;;;;;2.10;1.63;;;;;;;21.37;53.82;99302.44;10332630;28;20238;-69
2023/07/28 22:47:42;;;;;;;2.30;1.85;;;;;;;20.63;55.41;99321.38;10327103;28;20237;-72
2023/07/28 22:52:44;;;;;;;2.20;1.98;;;;;;;20.93;54.80;99286.47;10339462;28;20363;-72
2023/07/28 22:57:46;;;;;;;1.40;1.30;;;;;;;20.66;55.40;99307.25;10330714;28;20228;-72
2023/07/28 23:02:47;;;;;;;1.63;1.52;;;;;;;21.50;53.41;99309.28;10336120;28;20277;-72
2023/07/28 23:07:50;;;;;;;1.88;1.73;;;;;;;21.92;52.48;99319.13;10342696;28;20721;-72
2023/07/28 23:12:52;;;;;;;1.77;1.67;;;;;;;21.64;53.44;99304.13;10328905;28;20234;-72
2023/07/28 23:17:54;;;;;;;2.33;1.58;;;;;;;21.95;52.14;99322.16;10336711;28;20368;-70
2023/07/28 23:22:56;;;;;;;3.00;1.55;;;;;;;21.23;53.47;99334.75;10332110;28;20249;-73
2023/07/28 23:27:57;;;;;;;1.58;1.48;;;;;;;21.09;54.04;99314.53;10335611;28;20236;-70